createdAt,value
2017-08-08T00:02:17.458Z,7.00
2017-08-08T00:04:47.423Z,6.73
2017-08-08T00:07:16.310Z,6.80
2017-08-08T00:09:44.767Z,7.90
2017-08-08T00:12:14.037Z,7.70
2017-08-08T00:14:42.873Z,6.57
2017-08-08T00:17:11.935Z,7.17
2017-08-08T00:19:40.436Z,7.10
2017-08-08T00:22:10.403Z,6.73
2017-08-08T00:24:38.832Z,7.63
2017-08-08T00:27:08.811Z,7.17
2017-08-08T00:29:37.259Z,7.00
2017-08-08T00:32:05.715Z,7.30
2017-08-08T00:34:34.631Z,6.93
2017-08-08T00:37:03.483Z,7.47
2017-08-08T00:39:32.691Z,7.63
2017-08-08T00:42:01.517Z,8.10
2017-08-08T00:44:29.971Z,7.60
2017-08-08T00:46:59.592Z,8.37
2017-08-08T00:49:29.236Z,7.40
2017-08-08T00:51:58.856Z,8.00
2017-08-08T00:54:27.713Z,8.23
2017-08-08T00:56:57.156Z,6.90
2017-08-08T00:59:26.429Z,8.07
2017-08-08T01:01:54.895Z,7.70
2017-08-08T01:04:23.337Z,9.60
2017-08-08T01:06:52.843Z,7.83
2017-08-08T01:09:22.424Z,7.80
2017-08-08T01:11:50.864Z,8.00
2017-08-08T01:14:19.367Z,8.13
2017-08-08T01:16:48.207Z,7.73
2017-08-08T01:19:16.648Z,8.47
2017-08-08T01:21:45.554Z,7.30
2017-08-08T01:24:14.410Z,7.70
2017-08-08T01:26:43.681Z,8.00
2017-08-08T01:29:13.189Z,7.40
2017-08-08T01:31:41.642Z,8.00
2017-08-08T01:34:10.906Z,7.70
2017-08-08T01:36:40.357Z,8.93
2017-08-08T01:39:08.864Z,7.47
2017-08-08T01:41:38.824Z,9.23
2017-08-08T01:44:08.309Z,8.63
2017-08-08T01:46:37.761Z,9.60
2017-08-08T01:49:06.232Z,7.43
2017-08-08T01:51:35.137Z,8.40
2017-08-08T01:54:03.638Z,7.20
2017-08-08T01:56:32.488Z,8.67
2017-08-08T01:59:00.976Z,8.40
2017-08-08T02:01:30.254Z,8.87
2017-08-08T02:04:00.288Z,8.50
2017-08-08T02:06:28.737Z,8.07
2017-08-08T02:08:58.693Z,9.33
2017-08-08T02:11:26.835Z,10.13
2017-08-08T02:13:55.501Z,8.73
2017-08-08T02:16:24.364Z,9.80
2017-08-08T02:18:53.205Z,8.80
2017-08-08T02:21:22.066Z,9.63
2017-08-08T02:23:50.513Z,8.67
2017-08-08T02:26:19.845Z,8.40
2017-08-08T02:28:48.337Z,9.37
2017-08-08T02:31:17.002Z,9.70
2017-08-08T02:33:46.256Z,8.80
2017-08-08T02:36:15.100Z,9.77
2017-08-08T02:38:43.939Z,9.60
2017-08-08T02:41:12.469Z,8.90
2017-08-08T02:43:40.915Z,10.33
2017-08-08T02:46:10.108Z,9.93
2017-08-08T02:48:39.030Z,10.70
2017-08-08T02:51:07.489Z,9.67
2017-08-08T02:53:36.346Z,11.30
2017-08-08T02:56:05.315Z,10.00
2017-08-08T02:58:33.759Z,11.83
2017-08-08T03:01:02.960Z,11.70
2017-08-08T03:03:31.476Z,11.80
2017-08-08T03:06:01.435Z,12.80
2017-08-08T03:08:29.903Z,12.00
2017-08-08T03:10:58.377Z,10.40
2017-08-08T03:13:27.705Z,13.57
2017-08-08T03:15:56.965Z,13.20
2017-08-08T03:18:25.986Z,11.50
2017-08-08T03:20:54.621Z,11.77
2017-08-08T03:23:23.100Z,11.03
2017-08-08T03:25:53.124Z,10.77
2017-08-08T03:28:22.401Z,12.50
2017-08-08T03:30:51.978Z,11.43
2017-08-08T03:33:20.588Z,11.73
2017-08-08T03:35:49.042Z,11.70
2017-08-08T03:38:18.489Z,10.87
2017-08-08T03:40:47.075Z,13.10
2017-08-08T03:43:15.913Z,12.70
2017-08-08T03:45:44.442Z,11.73
2017-08-08T03:48:14.389Z,11.83
2017-08-08T03:50:42.832Z,12.10
2017-08-08T03:53:12.410Z,11.67
2017-08-08T03:55:41.673Z,11.93
2017-08-08T03:58:10.533Z,12.20
2017-08-08T04:00:39.368Z,12.67
2017-08-08T04:03:08.283Z,12.53
2017-08-08T04:05:38.265Z,13.47
2017-08-08T04:08:06.755Z,13.73
2017-08-08T04:10:35.961Z,12.17
2017-08-08T04:13:04.408Z,14.00
2017-08-08T04:15:32.971Z,13.87
2017-08-08T04:18:01.811Z,14.13
2017-08-08T04:20:31.770Z,15.87
2017-08-08T04:23:00.666Z,13.07
2017-08-08T04:25:29.127Z,13.23
2017-08-08T04:27:57.599Z,13.67
2017-08-08T04:30:26.045Z,14.87
2017-08-08T04:32:54.527Z,14.10
2017-08-08T04:35:23.616Z,14.80
2017-08-08T04:37:52.510Z,14.33
2017-08-08T04:40:20.971Z,14.57
2017-08-08T04:42:49.817Z,13.53
2017-08-08T04:45:18.326Z,14.87
2017-08-08T04:47:46.766Z,14.90
2017-08-08T04:50:15.611Z,16.27
2017-08-08T04:52:44.140Z,15.80
2017-08-08T04:55:12.982Z,14.10
2017-08-08T04:57:41.825Z,14.33
2017-08-08T05:00:11.461Z,15.50
2017-08-08T05:02:40.296Z,13.60
2017-08-08T05:05:09.876Z,13.47
2017-08-08T05:07:38.761Z,12.50
2017-08-08T05:10:07.968Z,14.20
2017-08-08T05:12:37.925Z,13.60
2017-08-08T05:15:06.372Z,14.10
2017-08-08T05:17:35.643Z,13.10
2017-08-08T05:20:04.522Z,12.73
2017-08-08T05:22:33.983Z,15.70
2017-08-08T05:25:02.826Z,15.30
2017-08-08T05:27:32.046Z,13.10
2017-08-08T05:30:00.669Z,13.53
2017-08-08T05:32:30.319Z,13.63
2017-08-08T05:34:59.770Z,12.53
2017-08-08T05:37:28.974Z,12.90
2017-08-08T05:39:58.244Z,12.80
2017-08-08T05:42:28.218Z,12.60
2017-08-08T05:44:56.666Z,12.20
2017-08-08T05:47:26.040Z,11.47
2017-08-08T05:49:55.573Z,13.17
2017-08-08T05:52:24.448Z,13.93
2017-08-08T05:54:52.928Z,15.60
2017-08-08T05:57:22.522Z,10.90
2017-08-08T05:59:52.516Z,13.17
2017-08-08T06:02:21.379Z,13.87
2017-08-08T06:04:51.572Z,12.67
2017-08-08T06:07:20.021Z,12.57
2017-08-08T06:09:48.763Z,12.33
2017-08-08T06:12:17.243Z,12.70
2017-08-08T06:14:45.809Z,11.70
2017-08-08T06:17:14.293Z,11.60
2017-08-08T06:19:43.336Z,10.73
2017-08-08T06:22:11.863Z,12.47
2017-08-08T06:24:40.701Z,11.80
2017-08-08T06:27:09.140Z,11.60
2017-08-08T06:29:38.758Z,11.77
2017-08-08T06:32:07.259Z,11.70
2017-08-08T06:34:36.100Z,12.13
2017-08-08T06:37:04.943Z,10.83
2017-08-08T06:39:34.439Z,12.63
2017-08-08T06:42:03.268Z,11.70
2017-08-08T06:44:32.713Z,13.97
2017-08-08T06:47:01.562Z,13.73
2017-08-08T06:49:30.012Z,13.37
2017-08-08T06:51:58.901Z,12.07
2017-08-08T06:54:28.148Z,12.57
2017-08-08T06:56:57.387Z,11.90
2017-08-08T06:59:26.260Z,10.87
2017-08-08T07:01:55.789Z,10.03
2017-08-08T07:04:24.638Z,10.40
2017-08-08T07:06:53.672Z,10.97
2017-08-08T07:09:22.950Z,10.30
2017-08-08T07:11:51.385Z,11.80
2017-08-08T07:14:20.217Z,10.77
2017-08-08T07:16:48.744Z,11.70
2017-08-08T07:19:18.367Z,9.80
2017-08-08T07:21:47.903Z,12.23
2017-08-08T07:24:16.447Z,12.53
2017-08-08T07:26:45.330Z,13.07
2017-08-08T07:29:15.559Z,10.23
2017-08-08T07:31:44.832Z,11.90
2017-08-08T07:34:14.530Z,10.50
2017-08-08T07:36:42.975Z,10.97
2017-08-08T07:39:14.259Z,10.00
2017-08-08T07:41:43.518Z,12.37
2017-08-08T07:44:13.037Z,10.33
2017-08-08T07:46:41.670Z,9.53
2017-08-08T07:49:11.204Z,8.70
2017-08-08T07:51:40.438Z,9.10
2017-08-08T07:54:09.353Z,9.37
2017-08-08T07:56:38.836Z,10.20
2017-08-08T07:59:07.292Z,10.10
2017-08-08T08:01:37.513Z,7.00
2017-08-08T08:04:06.979Z,10.80
2017-08-08T08:06:36.425Z,8.63
2017-08-08T08:09:05.599Z,9.57
2017-08-08T08:11:35.045Z,8.50
2017-08-08T08:14:05.043Z,7.50
2017-08-08T08:16:34.666Z,10.50
2017-08-08T08:19:04.301Z,10.30
2017-08-08T08:21:32.804Z,9.73
2017-08-08T08:24:02.306Z,8.63
2017-08-08T08:26:31.775Z,10.30
2017-08-08T08:29:01.353Z,7.43
2017-08-08T08:31:30.234Z,8.60
2017-08-08T08:33:58.905Z,11.90
2017-08-08T08:36:27.631Z,11.70
2017-08-08T08:38:57.322Z,9.60
2017-08-08T08:41:25.840Z,11.00
2017-08-08T08:43:55.440Z,8.50
2017-08-08T08:46:24.306Z,9.23
2017-08-08T08:48:53.597Z,7.03
2017-08-08T08:51:22.096Z,12.17
2017-08-08T08:53:51.043Z,9.23
2017-08-08T08:56:20.305Z,7.90
2017-08-08T08:58:49.174Z,8.50
2017-08-08T09:01:17.672Z,8.27
2017-08-08T09:03:46.593Z,11.03
2017-08-08T09:06:15.159Z,11.10
2017-08-08T09:08:44.414Z,9.00
2017-08-08T09:11:14.448Z,8.13
2017-08-08T09:13:43.708Z,8.63
2017-08-08T09:16:13.192Z,9.43
2017-08-08T09:18:42.466Z,8.07
2017-08-08T09:21:12.088Z,9.70
2017-08-08T09:23:41.703Z,8.77
2017-08-08T09:26:10.736Z,9.43
2017-08-08T09:28:39.614Z,8.37
2017-08-08T09:31:08.157Z,8.43
2017-08-08T09:33:38.142Z,8.83
2017-08-08T09:36:07.008Z,5.97
2017-08-08T09:38:35.875Z,6.70
2017-08-08T09:41:05.409Z,7.80
2017-08-08T09:43:34.284Z,7.00
2017-08-08T09:46:04.462Z,8.30
2017-08-08T09:48:34.482Z,7.00
2017-08-08T09:51:04.059Z,7.27
2017-08-08T09:53:33.561Z,7.60
2017-08-08T09:56:02.289Z,5.27
2017-08-08T09:58:31.419Z,7.77
2017-08-08T10:01:02.031Z,7.13
2017-08-08T10:03:30.536Z,6.90
2017-08-08T10:06:00.220Z,6.57
2017-08-08T10:08:29.155Z,6.73
2017-08-08T10:10:58.623Z,7.60
2017-08-08T10:13:29.141Z,6.77
2017-08-08T10:15:58.523Z,9.37
2017-08-08T10:18:27.987Z,9.40
2017-08-08T10:20:57.251Z,6.97
2017-08-08T10:23:26.245Z,8.87
2017-08-08T10:25:55.158Z,7.53
2017-08-08T10:28:24.565Z,7.40
2017-08-08T10:30:54.585Z,8.87
2017-08-08T10:33:23.496Z,6.67
2017-08-08T10:35:53.012Z,8.70
2017-08-08T10:38:21.479Z,6.20
2017-08-08T10:40:51.139Z,6.10
2017-08-08T10:43:20.087Z,6.30
2017-08-08T10:45:48.748Z,7.50
2017-08-08T10:48:17.220Z,6.83
2017-08-08T10:50:47.174Z,6.97
2017-08-08T10:53:16.502Z,7.23
2017-08-08T10:55:45.772Z,7.50
2017-08-08T10:58:14.858Z,6.97
2017-08-08T11:00:44.474Z,5.70
2017-08-08T11:03:14.522Z,7.40
2017-08-08T11:05:44.027Z,7.77
2017-08-08T11:08:12.702Z,7.10
2017-08-08T11:10:42.766Z,8.40
2017-08-08T11:13:12.388Z,7.70
2017-08-08T11:15:41.273Z,7.40
2017-08-08T11:18:10.173Z,8.83
2017-08-08T11:20:39.403Z,8.07
2017-08-08T11:23:08.877Z,8.03
2017-08-08T11:25:38.180Z,7.20
2017-08-08T11:28:07.028Z,7.20
2017-08-08T11:30:36.795Z,9.60
2017-08-08T11:33:06.410Z,6.70
2017-08-08T11:35:35.467Z,9.60
2017-08-08T11:38:03.964Z,6.23
2017-08-08T11:40:33.095Z,7.83
2017-08-08T11:43:02.313Z,6.20
2017-08-08T11:45:30.794Z,5.93
2017-08-08T11:48:00.966Z,7.87
2017-08-08T11:50:29.852Z,9.93
2017-08-08T11:52:58.726Z,6.13
2017-08-08T11:55:28.029Z,5.90
2017-08-08T11:57:57.510Z,7.07
2017-08-08T12:00:27.078Z,6.50
2017-08-08T12:02:56.677Z,6.13
2017-08-08T12:05:26.330Z,5.37
2017-08-08T12:07:55.841Z,7.07
2017-08-08T12:10:24.730Z,6.83
2017-08-08T12:12:53.223Z,4.23
2017-08-08T12:15:22.739Z,7.27
2017-08-08T12:17:51.710Z,4.90
2017-08-08T12:20:21.317Z,6.70
2017-08-08T12:22:49.784Z,5.90
2017-08-08T12:25:19.768Z,5.33
2017-08-08T12:27:49.282Z,5.73
2017-08-08T12:30:18.154Z,5.23
2017-08-08T12:32:47.835Z,5.27
2017-08-08T12:35:16.298Z,6.20
2017-08-08T12:37:46.316Z,5.20
2017-08-08T12:40:15.794Z,6.13
2017-08-08T12:42:45.312Z,5.60
2017-08-08T12:45:15.322Z,4.80
2017-08-08T12:47:43.784Z,5.57
2017-08-08T12:50:13.424Z,5.07
2017-08-08T12:52:41.901Z,5.60
2017-08-08T12:55:10.753Z,4.87
2017-08-08T12:57:39.695Z,3.93
2017-08-08T13:00:08.368Z,4.43
2017-08-08T13:02:37.614Z,5.03
2017-08-08T13:05:06.500Z,4.40
2017-08-08T13:07:35.374Z,6.50
2017-08-08T13:10:04.306Z,4.70
2017-08-08T13:12:33.460Z,4.30
2017-08-08T13:15:03.149Z,5.13
2017-08-08T13:17:31.636Z,6.30
2017-08-08T13:20:01.188Z,5.73
2017-08-08T13:22:30.050Z,6.63
2017-08-08T13:24:58.909Z,5.90
2017-08-08T13:27:28.458Z,5.20
2017-08-08T13:29:57.597Z,5.20
2017-08-08T13:32:26.566Z,6.80
2017-08-08T13:34:55.587Z,5.13
2017-08-08T13:37:25.056Z,7.13
2017-08-08T13:39:53.589Z,7.43
2017-08-08T13:42:22.371Z,7.20
2017-08-08T13:44:52.620Z,8.00
2017-08-08T13:47:22.120Z,8.70
2017-08-08T13:49:51.764Z,8.20
2017-08-08T13:52:21.093Z,8.43
2017-08-08T13:54:49.980Z,8.67
2017-08-08T13:57:18.925Z,7.73
2017-08-08T13:59:48.356Z,8.60
2017-08-08T14:02:17.685Z,7.30
2017-08-08T14:04:46.257Z,7.43
2017-08-08T14:07:15.152Z,7.23
2017-08-08T14:09:43.657Z,7.80
2017-08-08T14:12:18.693Z,7.30
2017-08-08T14:14:47.186Z,8.77
2017-08-08T14:17:16.733Z,8.60
2017-08-08T14:19:47.156Z,10.77
2017-08-08T14:22:16.615Z,8.50
2017-08-08T14:24:45.499Z,10.07
2017-08-08T14:27:14.043Z,10.00
2017-08-08T14:29:44.175Z,9.20
2017-08-08T14:32:14.282Z,8.90
2017-08-08T14:34:43.557Z,7.70
2017-08-08T14:37:13.179Z,7.43
2017-08-08T14:39:41.673Z,8.30
2017-08-08T14:42:10.914Z,8.20
2017-08-08T14:44:40.620Z,8.20
2017-08-08T14:47:09.090Z,6.50
2017-08-08T14:49:38.000Z,6.10
2017-08-08T14:52:06.967Z,5.37
2017-08-08T14:54:37.047Z,7.43
2017-08-08T14:57:06.986Z,5.03
2017-08-08T14:59:36.608Z,4.97
2017-08-08T15:02:06.299Z,4.20
2017-08-08T15:04:35.806Z,3.63
2017-08-08T15:07:04.886Z,3.33
2017-08-08T15:09:33.368Z,3.57
2017-08-08T15:12:02.061Z,4.33
2017-08-08T15:14:31.541Z,4.10
2017-08-08T15:17:01.561Z,4.20
2017-08-08T15:19:30.800Z,3.20
2017-08-08T15:21:59.335Z,3.87
2017-08-08T15:24:28.835Z,4.43
2017-08-08T15:26:58.333Z,4.23
2017-08-08T15:29:27.445Z,2.57
2017-08-08T15:31:56.802Z,4.37
2017-08-08T15:34:25.731Z,3.70
2017-08-08T15:36:54.618Z,2.80
2017-08-08T15:39:24.722Z,2.70
2017-08-08T15:41:53.413Z,5.50
2017-08-08T15:44:23.309Z,3.77
2017-08-08T15:46:53.179Z,3.30
2017-08-08T15:49:22.819Z,2.97
2017-08-08T15:51:52.041Z,4.93
2017-08-08T15:54:21.628Z,2.50
2017-08-08T15:56:51.080Z,2.87
2017-08-08T15:59:20.562Z,4.60
2017-08-08T16:01:49.438Z,3.50
2017-08-08T16:04:17.947Z,4.20
2017-08-08T16:06:47.410Z,5.10
2017-08-08T16:09:16.127Z,4.53
2017-08-08T16:11:45.702Z,3.63
2017-08-08T16:14:15.484Z,2.97
2017-08-08T16:16:43.938Z,3.03
2017-08-08T16:19:13.902Z,5.37
2017-08-08T16:21:42.410Z,3.00
2017-08-08T16:24:10.916Z,2.90
2017-08-08T16:26:40.429Z,3.50
2017-08-08T16:29:10.640Z,4.00
2017-08-08T16:31:39.136Z,4.80
2017-08-08T16:34:07.623Z,2.27
2017-08-08T16:36:36.859Z,5.20
2017-08-08T16:39:06.826Z,2.80
2017-08-08T16:41:36.808Z,5.50
2017-08-08T16:44:05.484Z,2.70
2017-08-08T16:46:34.727Z,3.87
2017-08-08T16:49:03.169Z,4.00
2017-08-08T16:51:32.280Z,5.60
2017-08-08T16:54:01.118Z,2.30
2017-08-08T16:56:29.978Z,4.07
2017-08-08T16:58:59.641Z,3.37
2017-08-08T17:01:28.120Z,5.40
2017-08-08T17:03:57.794Z,2.27
2017-08-08T17:06:26.861Z,6.80
2017-08-08T17:08:55.940Z,2.70
2017-08-08T17:11:25.579Z,4.97
2017-08-08T17:13:55.031Z,3.20
2017-08-08T17:16:24.250Z,5.43
2017-08-08T17:18:53.848Z,3.70
2017-08-08T17:21:22.709Z,3.77
2017-08-08T17:23:51.973Z,3.60
2017-08-08T17:26:20.851Z,5.27
2017-08-08T17:28:49.326Z,5.30
2017-08-08T17:31:18.594Z,4.23
2017-08-08T17:33:48.175Z,3.73
2017-08-08T17:36:17.400Z,4.13
2017-08-08T17:38:46.180Z,3.57
2017-08-08T17:41:14.822Z,4.10
2017-08-08T17:43:43.305Z,3.47
2017-08-08T17:46:12.589Z,2.70
2017-08-08T17:48:41.460Z,4.07
2017-08-08T17:51:10.291Z,3.87
2017-08-08T17:53:40.998Z,4.30
2017-08-08T17:56:09.476Z,3.20
2017-08-08T17:58:37.941Z,3.20
2017-08-08T18:01:07.466Z,6.27
2017-08-08T18:03:35.992Z,4.10
2017-08-08T18:06:04.862Z,5.20
2017-08-08T18:08:33.445Z,2.70
2017-08-08T18:11:02.764Z,3.20
2017-08-08T18:13:31.623Z,3.63
2017-08-08T18:16:00.496Z,3.43
2017-08-08T18:18:30.516Z,3.33
2017-08-08T18:20:59.734Z,3.83
2017-08-08T18:23:28.586Z,4.47
2017-08-08T18:25:58.195Z,3.37
2017-08-08T18:28:26.869Z,4.20
2017-08-08T18:30:55.366Z,4.30
2017-08-08T18:33:24.603Z,4.20
2017-08-08T18:35:53.115Z,3.70
2017-08-08T18:38:22.948Z,4.93
2017-08-08T18:40:51.522Z,3.23
2017-08-08T18:43:21.127Z,4.63
2017-08-08T18:45:49.592Z,3.70
2017-08-08T18:48:19.268Z,3.00
2017-08-08T18:50:48.515Z,3.70
2017-08-08T18:53:18.057Z,5.20
2017-08-08T18:55:47.334Z,3.87
2017-08-08T18:58:16.555Z,4.17
2017-08-08T19:00:45.959Z,4.20
2017-08-08T19:03:14.465Z,3.77
2017-08-08T19:05:42.933Z,3.80
2017-08-08T19:08:12.179Z,2.70
2017-08-08T19:10:40.805Z,3.40
2017-08-08T19:13:09.312Z,3.47
2017-08-08T19:15:38.440Z,4.43
2017-08-08T19:18:07.725Z,3.90
2017-08-08T19:20:36.395Z,3.10
2017-08-08T19:23:05.617Z,3.10
2017-08-08T19:25:34.195Z,3.40
2017-08-08T19:28:02.869Z,7.17
2017-08-08T19:30:31.884Z,3.77
2017-08-08T19:33:00.987Z,3.13
2017-08-08T19:35:30.698Z,3.93
2017-08-08T19:37:59.682Z,3.53
2017-08-08T19:40:28.443Z,5.10
2017-08-08T19:42:58.131Z,2.80
2017-08-08T19:45:27.666Z,4.03
2017-08-08T19:47:56.768Z,4.23
2017-08-08T19:50:25.552Z,3.50
2017-08-08T19:52:55.865Z,2.77
2017-08-08T19:55:25.015Z,2.33
2017-08-08T19:57:53.790Z,5.60
2017-08-08T20:00:22.975Z,4.17
2017-08-08T20:02:52.192Z,4.10
2017-08-08T20:05:20.950Z,3.53
2017-08-08T20:07:50.911Z,3.10
2017-08-08T20:10:20.119Z,3.97
2017-08-08T20:12:48.874Z,3.40
2017-08-08T20:15:18.397Z,3.33
2017-08-08T20:17:47.501Z,3.30
2017-08-08T20:20:17.039Z,4.10
2017-08-08T20:22:45.745Z,3.97
2017-08-08T20:25:15.070Z,3.83
2017-08-08T20:27:43.573Z,6.17
2017-08-08T20:30:12.052Z,3.17
2017-08-08T20:32:41.273Z,4.47
2017-08-08T20:35:09.776Z,4.07
2017-08-08T20:37:38.630Z,3.43
2017-08-08T20:40:08.222Z,4.10
2017-08-08T20:42:37.110Z,3.90
2017-08-08T20:45:05.569Z,3.67
2017-08-08T20:47:34.635Z,5.07
2017-08-08T20:50:03.549Z,4.30
2017-08-08T20:52:32.782Z,3.63
2017-08-08T20:55:01.685Z,2.83
2017-08-08T20:57:30.525Z,4.27
2017-08-08T21:00:00.009Z,3.83
2017-08-08T21:02:28.859Z,7.63
2017-08-08T21:04:58.832Z,4.40
2017-08-08T21:07:27.791Z,4.30
2017-08-08T21:09:56.634Z,4.57
2017-08-08T21:12:26.619Z,5.60
2017-08-08T21:14:55.497Z,4.90
2017-08-08T21:17:23.931Z,3.70
2017-08-08T21:19:52.975Z,3.43
2017-08-08T21:22:22.993Z,3.87
2017-08-08T21:24:52.240Z,4.00
2017-08-08T21:27:21.493Z,4.47
2017-08-08T21:29:50.708Z,4.20
2017-08-08T21:32:19.936Z,4.07
2017-08-08T21:34:49.174Z,6.57
2017-08-08T21:37:18.007Z,5.17
2017-08-08T21:39:46.708Z,4.60
2017-08-08T21:42:15.179Z,5.27
2017-08-08T21:44:44.596Z,4.73
2017-08-08T21:47:13.606Z,4.40
2017-08-08T21:49:43.556Z,3.87
2017-08-08T21:52:13.039Z,4.67
2017-08-08T21:54:41.885Z,5.00
2017-08-08T21:57:10.380Z,3.93
2017-08-08T21:59:39.585Z,3.87
2017-08-08T22:02:08.847Z,4.90
2017-08-08T22:04:37.302Z,3.83
2017-08-08T22:07:06.140Z,5.10
2017-08-08T22:09:34.818Z,5.07
2017-08-08T22:12:04.361Z,3.80
2017-08-08T22:14:33.766Z,4.10
2017-08-08T22:17:02.451Z,5.40
2017-08-08T22:19:31.568Z,4.20
2017-08-08T22:22:00.230Z,5.07
2017-08-08T22:24:30.192Z,5.37
2017-08-08T22:26:58.781Z,4.03
2017-08-08T22:29:27.618Z,3.57
2017-08-08T22:31:56.082Z,5.43
2017-08-08T22:34:25.501Z,4.27
2017-08-08T22:36:53.979Z,4.10
2017-08-08T22:39:23.388Z,4.97
2017-08-08T22:41:53.376Z,5.23
2017-08-08T22:44:21.853Z,5.27
2017-08-08T22:46:52.038Z,4.80
2017-08-08T22:49:21.619Z,4.60
2017-08-08T22:51:50.867Z,6.73
2017-08-08T22:54:19.325Z,5.20
2017-08-08T22:56:48.772Z,6.03
2017-08-08T22:59:17.925Z,5.83
2017-08-08T23:01:46.384Z,6.00
2017-08-08T23:04:14.869Z,4.33
2017-08-08T23:06:43.744Z,6.30
2017-08-08T23:09:13.009Z,4.60
2017-08-08T23:11:42.956Z,5.83
2017-08-08T23:14:11.545Z,4.37
2017-08-08T23:16:40.388Z,4.33
2017-08-08T23:19:08.829Z,5.33
2017-08-08T23:21:38.333Z,4.03
2017-08-08T23:24:06.821Z,5.60
2017-08-08T23:26:36.169Z,5.73
2017-08-08T23:29:04.630Z,4.47
2017-08-08T23:31:34.221Z,6.17
2017-08-08T23:34:03.433Z,4.63
2017-08-08T23:36:32.280Z,5.17
2017-08-08T23:39:01.960Z,5.10
2017-08-08T23:41:31.553Z,4.20
2017-08-08T23:44:00.395Z,4.13
2017-08-08T23:46:30.552Z,4.93
2017-08-08T23:49:00.213Z,4.70
2017-08-08T23:51:29.662Z,5.40
2017-08-08T23:53:59.240Z,5.43
2017-08-08T23:56:28.709Z,4.83
2017-08-08T23:58:57.170Z,4.53
